Time;durP1;ratioP1;P1;durP2;ratioP2;P2;SDS_P1;SDS_P2;PMS_P1;PMS_P2;Temp;Humidity;BMP_temperature;BMP_pressure;BME280_temperature;BME280_humidity;BME280_pressure;Samples;Min_cycle;Max_cycle;Signal;HPM_P1;HPM_P2
2023/06/11 07:10:45;;;;;;;8.50;4.50;;;;;;;23.48;49.24;99788.25;1086886;54;20030;-86
2023/06/11 07:14:08;;;;;;;6.47;5.15;;;;;;;23.74;48.68;99779.84;1082929;54;20033;31
2023/06/11 07:16:24;;;;;;;7.87;4.30;;;;;;;23.72;47.90;99776.53;1087607;54;20050;-87
2023/06/11 07:17:30;;;;;;;6.13;4.80;;;;;;;23.93;47.95;99775.06;1086908;47;20275;-86
2023/06/11 07:18:39;;;;;;;6.20;4.97;;;;;;;23.75;48.15;99774.13;1087264;47;20057;-86
2023/06/11 07:19:41;;;;;;;6.82;4.65;;;;;;;23.78;47.80;99781.84;1087244;47;20026;-86
2023/06/11 07:20:53;;;;;;;6.60;4.75;;;;;;;23.83;47.15;99771.03;1087300;54;20038;-85
2023/06/11 07:21:55;;;;;;;8.63;4.60;;;;;;;23.73;47.55;99776.28;1087672;47;20050;-87
2023/06/11 07:24:04;;;;;;;6.38;5.05;;;;;;;24.17;46.70;99772.31;1088073;54;20007;-87
2023/06/11 07:26:30;;;;;;;8.40;4.75;;;;;;;23.91;46.06;99774.47;1087333;54;21421;-85
2023/06/11 07:27:34;;;;;;;8.98;5.53;;;;;;;23.88;46.32;99764.03;1087500;47;20033;-84
2023/06/11 07:28:36;;;;;;;6.45;4.80;;;;;;;23.84;46.03;99771.88;1087861;47;20832;-84
2023/06/11 07:31:11;;;;;;;6.28;4.45;;;;;;;23.94;45.80;99769.41;1088014;54;20042;-86
2023/06/11 07:33:28;;;;;;;6.10;4.45;;;;;;;24.18;45.36;99776.72;1085828;39;21140;-83
2023/06/11 07:36:58;;;;;;;6.00;4.57;;;;;;;24.82;44.41;99778.50;1081938;54;20049;-85
2023/06/11 07:38:06;;;;;;;7.72;5.00;;;;;;;24.94;43.58;99775.72;1082861;47;20015;-86
2023/06/11 07:39:14;;;;;;;5.83;4.47;;;;;;;25.12;43.72;99771.94;1085469;47;20015;-85
2023/06/11 07:40:23;;;;;;;5.27;4.23;;;;;;;25.28;42.98;99775.72;1077023;47;20026;31
2023/06/11 07:41:31;;;;;;;6.35;4.68;;;;;;;25.30;42.64;99774.41;1079237;47;20038;31
2023/06/11 07:45:18;;;;;;;5.80;4.55;;;;;;;25.64;42.39;99770.84;1086557;47;21079;31
2023/06/11 07:49:11;;;;;;;5.57;4.10;;;;;;;25.73;41.29;99768.50;1087996;54;20070;-86
2023/06/11 07:51:27;;;;;;;5.55;4.38;;;;;;;25.73;40.88;99765.75;1088228;54;20030;-85
2023/06/11 07:53:49;;;;;;;6.72;4.45;;;;;;;25.51;40.98;99772.00;1078993;47;20030;31
2023/06/11 07:56:01;;;;;;;7.53;4.30;;;;;;;25.88;40.53;99767.88;1077928;39;20051;31
2023/06/11 07:57:08;;;;;;;5.50;4.25;;;;;;;25.76;40.67;99768.00;1079929;54;20022;31
2023/06/11 07:58:20;;;;;;;6.07;4.07;;;;;;;25.95;39.73;99773.97;1084199;46;20041;31
2023/06/11 08:00:42;;;;;;;6.25;4.38;;;;;;;26.06;39.69;99770.31;1082354;54;20042;31
2023/06/11 08:04:30;;;;;;;5.55;4.00;;;;;;;26.05;39.26;99773.31;1088225;54;19994;-84
2023/06/11 08:06:39;;;;;;;7.63;4.18;;;;;;;26.26;38.70;99767.00;1088101;54;22516;-84
2023/06/11 08:08:53;;;;;;;;;;;;;;;26.13;38.60;99776.44;1087045;54;20030;-81
2023/06/11 08:09:57;;;;;;;9.93;4.40;;;;;;;26.15;39.29;99768.00;1087793;54;19942;-83
2023/06/11 08:12:07;;;;;;;10.73;4.20;;;;;;;26.46;38.58;99763.69;1087697;54;20041;-85
2023/06/11 08:13:08;;;;;;;6.32;4.40;;;;;;;26.55;38.28;99763.22;1087262;46;20027;-83
2023/06/11 08:14:18;;;;;;;7.43;4.53;;;;;;;26.74;37.59;99766.41;1087359;46;20027;-85
2023/06/11 08:15:21;;;;;;;;;;;;;;;26.78;37.55;99764.84;1087620;54;20034;-82
2023/06/11 08:16:25;;;;;;;5.25;3.67;;;;;;;26.65;38.02;99759.75;1088817;39;20680;-84
2023/06/11 08:17:26;;;;;;;5.30;3.75;;;;;;;26.85;37.53;99764.66;1087126;54;20034;-85
2023/06/11 08:18:30;;;;;;;6.13;4.20;;;;;;;26.93;37.21;99769.66;1087222;46;20095;-84
2023/06/11 08:20:41;;;;;;;5.78;4.00;;;;;;;26.71;36.70;99767.78;1087626;54;20016;-82
2023/06/11 08:21:42;;;;;;;5.72;4.20;;;;;;;26.88;36.81;99769.59;1087645;54;20053;-81
2023/06/11 08:22:46;;;;;;;5.15;3.70;;;;;;;27.08;36.41;99763.47;1087496;54;20046;-81
2023/06/11 08:23:54;;;;;;;7.18;4.40;;;;;;;26.95;35.86;99770.22;1087142;46;20121;-83
2023/06/11 08:26:07;;;;;;;5.35;4.05;;;;;;;27.01;36.32;99771.91;1087556;54;20026;-82
2023/06/11 08:27:09;;;;;;;7.00;4.20;;;;;;;26.89;35.83;99763.03;1087942;54;20034;-84
2023/06/11 08:28:13;;;;;;;6.03;4.35;;;;;;;26.98;35.53;99766.13;1087253;47;20053;-79
2023/06/11 08:29:20;;;;;;;5.30;3.85;;;;;;;27.07;35.26;99761.81;1087378;54;20053;-82
2023/06/11 08:30:25;;;;;;;5.80;3.92;;;;;;;27.25;34.81;99752.38;1088977;39;21107;-81
2023/06/11 08:31:29;;;;;;;7.47;4.18;;;;;;;27.02;34.72;99748.06;1087448;47;20034;-84
2023/06/11 08:32:30;;;;;;;6.55;3.58;;;;;;;27.01;34.55;99754.66;1087134;54;20030;-80
2023/06/11 08:33:33;;;;;;;6.72;4.70;;;;;;;27.10;34.16;99753.09;1088898;39;20698;-80
2023/06/11 08:34:34;;;;;;;7.00;4.10;;;;;;;26.88;33.96;99762.22;1087236;46;20023;-80
2023/06/11 08:35:38;;;;;;;5.95;4.00;;;;;;;27.05;33.59;99761.25;1087071;47;20037;-78
2023/06/11 08:36:40;;;;;;;6.72;3.97;;;;;;;27.33;33.71;99756.53;1086689;54;20128;-81
2023/06/11 08:37:44;;;;;;;7.15;3.90;;;;;;;27.07;33.95;99745.38;1086752;47;20051;-81
2023/06/11 08:38:51;;;;;;;5.53;3.70;;;;;;;27.28;33.83;99756.50;1086754;54;20035;-79
2023/06/11 08:39:52;;;;;;;6.95;4.03;;;;;;;27.36;33.83;99756.81;1086305;47;20030;-78
2023/06/11 08:40:56;;;;;;;6.53;3.85;;;;;;;27.21;33.96;99757.53;1086639;54;20030;-81
2023/06/11 08:42:00;;;;;;;5.63;4.15;;;;;;;27.40;33.41;99748.88;1087040;46;20027;-80
2023/06/11 08:43:01;;;;;;;7.30;4.00;;;;;;;27.65;32.83;99748.25;1086845;54;20042;-78
2023/06/11 08:44:05;;;;;;;7.28;4.03;;;;;;;27.79;32.82;99745.06;1086825;54;20039;-83
2023/06/11 08:45:09;;;;;;;6.70;3.95;;;;;;;27.79;31.63;99748.59;1086853;47;20026;-81
2023/06/11 08:46:15;;;;;;;6.35;3.80;;;;;;;27.78;31.50;99755.19;1087359;39;20812;-81
2023/06/11 08:47:19;;;;;;;7.05;4.03;;;;;;;27.40;31.61;99746.16;1087171;54;20037;-81
2023/06/11 08:48:24;;;;;;;5.18;3.60;;;;;;;27.34;32.00;99750.81;1087031;47;20031;-80
2023/06/11 08:49:30;;;;;;;8.82;4.45;;;;;;;27.14;31.87;99740.47;1087189;46;20006;-82
2023/06/11 08:50:31;;;;;;;7.60;3.60;;;;;;;27.30;31.72;99740.63;1087008;47;20023;-81
2023/06/11 08:51:38;;;;;;;5.85;3.85;;;;;;;27.58;31.32;99741.38;1086977;54;20034;-80
2023/06/11 08:52:41;;;;;;;6.90;4.18;;;;;;;27.71;30.59;99743.63;1087889;39;20364;-80
2023/06/11 08:53:45;;;;;;;5.53;4.35;;;;;;;27.58;30.80;99739.44;1086854;47;20053;-81
2023/06/11 08:54:47;;;;;;;5.93;4.13;;;;;;;27.53;31.62;99748.47;1089046;39;21087;-77
2023/06/11 08:55:51;;;;;;;5.95;3.95;;;;;;;27.76;30.69;99753.81;1087328;39;21182;-84
2023/06/11 08:56:53;;;;;;;5.35;3.60;;;;;;;27.88;30.73;99746.19;1086642;47;20031;-79
2023/06/11 08:57:56;;;;;;;5.30;3.78;;;;;;;27.94;30.63;99747.03;1086816;54;20380;-81
2023/06/11 08:59:02;;;;;;;5.63;3.58;;;;;;;28.05;29.56;99743.25;1086730;47;20033;-81
2023/06/11 09:00:05;;;;;;;5.15;3.58;;;;;;;28.18;29.46;99745.50;1086832;46;20118;-81
2023/06/11 09:01:14;;;;;;;4.97;3.65;;;;;;;28.43;28.81;99732.97;1086533;54;20043;-80
2023/06/11 09:02:16;;;;;;;7.10;4.00;;;;;;;28.33;28.88;99741.19;1089277;31;20847;-80
2023/06/11 09:03:23;;;;;;;6.95;3.85;;;;;;;28.11;29.40;99735.88;1086670;46;20026;-82
2023/06/11 09:04:24;;;;;;;6.82;3.83;;;;;;;28.07;29.24;99724.59;1086635;47;20026;-80
2023/06/11 09:05:28;;;;;;;5.28;3.90;;;;;;;28.46;28.93;99726.91;1088167;39;20863;-81
2023/06/11 09:06:29;;;;;;;7.15;3.55;;;;;;;28.49;28.39;99725.53;1086745;46;20026;-82
2023/06/11 09:07:33;;;;;;;5.97;3.83;;;;;;;28.53;28.33;99732.16;1086682;47;20030;-82
2023/06/11 09:08:34;;;;;;;7.18;3.83;;;;;;;28.62;28.04;99724.19;1086495;47;20984;-80
2023/06/11 09:09:38;;;;;;;5.40;3.50;;;;;;;28.56;27.98;99728.84;1086571;47;20061;-80
2023/06/11 09:10:48;;;;;;;5.07;3.47;;;;;;;28.74;27.48;99727.53;1086705;47;20052;-80
2023/06/11 09:11:52;;;;;;;5.03;3.38;;;;;;;28.31;28.31;99722.19;1086712;47;20026;-81
2023/06/11 09:12:54;;;;;;;5.03;3.53;;;;;;;28.66;28.17;99728.03;1086619;47;20059;-82
2023/06/11 09:13:58;;;;;;;8.18;3.65;;;;;;;28.47;28.03;99727.75;1086523;47;20065;-80
2023/06/11 09:14:59;;;;;;;5.22;3.70;;;;;;;28.69;28.19;99723.91;1091901;31;20984;-82
2023/06/11 09:16:04;;;;;;;5.20;3.58;;;;;;;28.58;27.96;99723.06;1086691;47;20042;-83
2023/06/11 09:17:15;;;;;;;5.55;3.40;;;;;;;28.40;27.28;99711.50;1086769;54;20841;-81
2023/06/11 09:18:22;;;;;;;4.97;3.33;;;;;;;28.28;27.09;99719.16;1086843;46;20031;-82
2023/06/11 09:19:24;;;;;;;4.97;3.72;;;;;;;28.55;27.08;99723.63;1086682;54;20027;-83
2023/06/11 09:20:29;;;;;;;5.20;3.58;;;;;;;28.54;26.83;99722.81;1086652;47;20033;-80
2023/06/11 09:21:32;;;;;;;6.47;3.55;;;;;;;28.35;26.68;99724.41;1086637;47;20042;-81
2023/06/11 09:22:37;;;;;;;5.72;3.75;;;;;;;28.33;27.25;99719.19;1086627;47;20071;-78
2023/06/11 09:23:43;;;;;;;6.10;3.55;;;;;;;28.64;26.96;99724.72;1086421;47;20026;-81
2023/06/11 09:24:50;;;;;;;5.18;3.50;;;;;;;28.74;26.41;99721.22;1086820;54;20038;-82
2023/06/11 09:25:55;;;;;;;6.35;3.85;;;;;;;29.02;26.47;99719.81;1086097;47;20052;-80
2023/06/11 09:27:00;;;;;;;4.57;3.08;;;;;;;28.62;26.69;99721.44;1086657;54;20030;-84
2023/06/11 09:28:05;;;;;;;6.50;3.72;;;;;;;28.26;26.80;99718.59;1086788;54;20058;-80
2023/06/11 09:29:09;;;;;;;6.32;3.67;;;;;;;28.54;26.82;99713.72;1086639;47;20027;-81
2023/06/11 09:30:13;;;;;;;5.32;3.80;;;;;;;28.72;26.22;99712.41;1086741;46;20042;-81
2023/06/11 09:31:21;;;;;;;5.75;3.90;;;;;;;28.92;25.35;99709.66;1086679;54;20039;-82
2023/06/11 09:32:25;;;;;;;4.70;3.00;;;;;;;28.94;25.01;99714.88;1086682;47;20202;-82
2023/06/11 09:33:30;;;;;;;6.32;3.53;;;;;;;29.06;25.32;99722.84;1086519;54;20034;-81
2023/06/11 09:34:31;;;;;;;5.25;3.30;;;;;;;29.14;24.61;99711.31;1086643;47;20022;-81
2023/06/11 09:35:35;;;;;;;4.93;3.50;;;;;;;29.30;24.49;99717.59;1086696;54;20038;-80
2023/06/11 09:36:37;;;;;;;7.40;3.08;;;;;;;29.12;24.13;99721.75;1086711;47;20023;-79
2023/06/11 09:37:46;;;;;;;6.55;3.28;;;;;;;29.04;23.85;99717.63;1086690;54;20057;-83
2023/06/11 09:38:48;;;;;;;5.22;2.90;;;;;;;28.90;23.25;99713.78;1086545;46;20051;-80
2023/06/11 09:39:52;;;;;;;5.43;3.28;;;;;;;29.05;23.39;99711.03;1086554;54;20030;-81
2023/06/11 09:40:55;;;;;;;6.05;3.28;;;;;;;29.20;23.17;99712.09;1086654;47;20027;-84
2023/06/11 09:41:58;;;;;;;6.00;3.20;;;;;;;29.38;23.11;99711.53;1087600;39;21067;-81
2023/06/11 09:43:00;;;;;;;4.47;2.90;;;;;;;29.54;23.02;99717.03;1086635;46;20023;-83
2023/06/11 09:44:06;;;;;;;4.50;3.10;;;;;;;29.54;22.84;99706.03;1086659;54;20090;-83
2023/06/11 09:45:13;;;;;;;4.45;2.92;;;;;;;29.64;23.06;99714.25;1088058;39;21335;-83
2023/06/11 09:46:17;;;;;;;7.47;3.58;;;;;;;29.80;23.09;99716.94;1089195;39;20809;-83
2023/06/11 09:47:20;;;;;;;4.93;3.05;;;;;;;29.76;23.44;99708.44;1086617;54;20042;-83
2023/06/11 09:48:26;;;;;;;5.00;3.25;;;;;;;29.56;23.15;99712.88;1087933;39;21167;-82
2023/06/11 09:49:28;;;;;;;5.35;2.95;;;;;;;29.65;23.43;99715.06;1086967;39;21452;-83
2023/06/11 09:50:35;;;;;;;4.43;3.15;;;;;;;29.60;23.72;99715.91;1087604;39;20709;-81
2023/06/11 09:51:38;;;;;;;5.20;3.22;;;;;;;29.32;23.79;99715.44;1086548;47;20023;-82
2023/06/11 09:52:43;;;;;;;7.32;3.55;;;;;;;29.44;23.93;99723.38;1086545;47;20030;-81
2023/06/11 09:53:56;;;;;;;4.97;3.30;;;;;;;29.45;23.67;99722.28;1086558;47;20037;-85
2023/06/11 09:55:00;;;;;;;6.80;3.53;;;;;;;29.38;23.94;99717.06;1086563;47;20038;-80
2023/06/11 09:56:04;;;;;;;5.80;3.53;;;;;;;29.57;23.88;99710.94;1086518;47;20027;-81
2023/06/11 09:57:07;;;;;;;4.65;3.15;;;;;;;29.75;23.96;99716.97;1086724;54;20034;-82
2023/06/11 09:58:11;;;;;;;4.95;3.15;;;;;;;29.88;23.59;99710.84;1086712;54;20043;-82
2023/06/11 09:59:16;;;;;;;5.00;3.70;;;;;;;29.94;23.48;99712.53;1086549;47;21378;-81
2023/06/11 10:00:21;;;;;;;5.65;3.60;;;;;;;30.03;23.37;99707.22;1086741;54;20059;-83
2023/06/11 10:01:25;;;;;;;5.32;3.38;;;;;;;29.79;23.66;99715.28;1086605;47;20094;-82
2023/06/11 10:02:29;;;;;;;8.02;3.50;;;;;;;29.90;23.64;99711.41;1086673;47;20052;-82
2023/06/11 10:03:33;;;;;;;7.57;4.10;;;;;;;29.31;23.84;99712.94;1087630;39;20765;-82
2023/06/11 10:04:40;;;;;;;9.55;3.70;;;;;;;29.26;24.12;99711.00;1086622;54;20039;-83
2023/06/11 10:05:41;;;;;;;7.38;3.83;;;;;;;29.44;24.32;99703.28;1087059;39;20833;-81
2023/06/11 10:06:48;;;;;;;6.68;3.67;;;;;;;29.67;23.89;99708.16;1086597;46;20079;-80
2023/06/11 10:07:57;;;;;;;5.70;3.40;;;;;;;29.93;23.51;99705.38;1086605;54;20196;-80
2023/06/11 10:09:03;;;;;;;7.20;3.47;;;;;;;30.14;23.40;99710.75;1086852;46;20046;-81
2023/06/11 10:10:06;;;;;;;4.95;3.58;;;;;;;30.31;23.34;99713.16;1086488;46;20026;-83
2023/06/11 10:11:10;;;;;;;5.85;3.53;;;;;;;29.98;22.74;99718.28;1086652;54;20042;-82
2023/06/11 10:12:11;;;;;;;5.47;3.50;;;;;;;30.25;22.69;99715.09;1089730;39;20744;-81
2023/06/11 10:13:29;;;;;;;5.50;3.10;;;;;;;30.41;21.53;99704.00;1088459;39;20899;-82
2023/06/11 10:14:30;;;;;;;5.15;3.28;;;;;;;30.46;21.79;99703.97;1086684;54;20034;-82
2023/06/11 10:15:37;;;;;;;5.18;3.40;;;;;;;30.44;21.70;99703.41;1086602;54;20038;-82
2023/06/11 10:16:39;;;;;;;5.20;3.28;;;;;;;30.26;21.14;99710.44;1086659;47;20030;-80
2023/06/11 10:17:49;;;;;;;6.53;3.55;;;;;;;30.17;21.46;99707.44;1086490;47;20984;-81
2023/06/11 10:19:03;;;;;;;6.30;3.38;;;;;;;30.26;21.64;99707.69;1086611;54;20057;-81
2023/06/11 10:20:18;;;;;;;5.28;2.97;;;;;;;30.51;21.50;99706.69;1086594;47;20102;-80
2023/06/11 10:21:19;;;;;;;4.65;3.10;;;;;;;30.48;21.60;99710.00;1086460;54;20022;-80
2023/06/11 10:22:23;;;;;;;5.68;3.30;;;;;;;30.26;21.63;99711.25;1086611;47;20056;-81
2023/06/11 10:23:37;;;;;;;7.13;3.92;;;;;;;29.91;21.66;99718.56;1086651;54;20061;-81
2023/06/11 10:24:40;;;;;;;7.97;3.47;;;;;;;29.87;22.15;99711.94;1086641;47;20052;-82
2023/06/11 10:25:44;;;;;;;6.63;3.45;;;;;;;30.06;21.72;99705.84;1086710;54;21304;-83
2023/06/11 10:26:45;;;;;;;7.15;3.40;;;;;;;29.99;21.80;99712.50;1086234;47;20026;-82
2023/06/11 10:27:49;;;;;;;5.05;3.35;;;;;;;30.10;21.38;99709.69;1086781;46;20038;-81
2023/06/11 10:28:52;;;;;;;5.38;3.63;;;;;;;30.36;21.53;99710.38;1086823;54;20027;-81
2023/06/11 10:29:56;;;;;;;5.30;3.20;;;;;;;30.52;21.04;99707.50;1086852;54;20056;-82
2023/06/11 10:30:59;;;;;;;5.22;3.33;;;;;;;30.58;20.99;99709.97;1088688;39;20773;-83
2023/06/11 10:32:01;;;;;;;5.43;3.60;;;;;;;30.70;20.93;99703.28;1086721;54;20054;-81
2023/06/11 10:33:05;;;;;;;6.65;3.50;;;;;;;30.73;20.81;99719.22;1086657;47;20064;-82
2023/06/11 10:34:13;;;;;;;7.00;3.63;;;;;;;30.76;20.54;99702.94;1086615;46;20055;-83
2023/06/11 10:35:25;;;;;;;6.88;3.17;;;;;;;30.83;20.28;99701.78;1086771;54;20031;-81
2023/06/11 10:36:27;;;;;;;5.90;3.10;;;;;;;31.10;20.46;99706.78;1086706;46;20023;-82
2023/06/11 10:37:35;;;;;;;5.40;3.40;;;;;;;30.68;20.12;99708.25;1086589;54;20041;-80
2023/06/11 10:38:37;;;;;;;8.80;4.10;;;;;;;30.50;20.93;99705.03;1086786;54;20034;-80
2023/06/11 10:39:54;;;;;;;5.32;3.47;;;;;;;30.74;20.19;99699.66;1086771;54;20055;-83
2023/06/11 10:41:02;;;;;;;6.75;3.35;;;;;;;30.73;20.46;99702.69;1086665;47;20056;-81
2023/06/11 10:42:07;;;;;;;6.70;3.63;;;;;;;30.64;20.49;99703.31;1086572;47;20052;-81
2023/06/11 10:43:23;;;;;;;5.82;3.58;;;;;;;31.06;20.08;99700.22;1086561;47;20045;-80
2023/06/11 10:44:24;;;;;;;8.40;3.08;;;;;;;30.82;20.59;99700.94;1086662;54;20054;-80
2023/06/11 10:45:36;;;;;;;5.07;3.08;;;;;;;31.00;20.15;99699.44;1086537;47;20030;-81
2023/06/11 10:46:46;;;;;;;5.07;3.50;;;;;;;31.21;20.12;99691.00;1086600;47;20022;-81
2023/06/11 10:47:51;;;;;;;5.10;3.33;;;;;;;31.47;20.35;99694.28;1086634;54;20074;-80
2023/06/11 10:48:54;;;;;;;6.57;3.75;;;;;;;31.47;20.08;99691.53;1086537;47;20043;-80
2023/06/11 10:50:11;;;;;;;5.03;2.97;;;;;;;31.43;19.60;99705.09;1086531;47;21366;-81
2023/06/11 10:51:16;;;;;;;5.72;3.72;;;;;;;31.52;19.82;99708.06;1086621;54;20054;-82
2023/06/11 10:52:17;;;;;;;5.97;3.08;;;;;;;31.27;19.64;99704.44;1086451;47;20022;-81
2023/06/11 10:53:21;;;;;;;5.63;3.53;;;;;;;31.34;19.78;99698.56;1086499;54;20034;-81
2023/06/11 10:54:30;;;;;;;4.57;3.05;;;;;;;31.11;19.69;99697.41;1087029;47;20087;-79
2023/06/11 10:55:32;;;;;;;6.03;3.67;;;;;;;30.98;20.16;99695.31;1086515;47;20108;-80
2023/06/11 10:56:39;;;;;;;5.13;3.28;;;;;;;31.30;20.09;99688.41;1086482;54;20035;-81
2023/06/11 10:57:41;;;;;;;6.10;3.10;;;;;;;31.71;19.68;99693.50;1086530;47;20056;-82
2023/06/11 10:58:51;;;;;;;6.30;3.38;;;;;;;30.95;19.38;99688.44;1086485;47;20061;-82
2023/06/11 10:59:53;;;;;;;5.80;3.08;;;;;;;30.82;19.46;99689.91;1086609;47;20062;-81
2023/06/11 11:00:59;;;;;;;4.68;2.95;;;;;;;31.20;19.21;99684.63;1086518;54;20038;-81
2023/06/11 11:02:00;;;;;;;8.48;3.78;;;;;;;31.26;19.24;99694.53;1086431;47;20456;-82
2023/06/11 11:03:06;;;;;;;6.00;2.85;;;;;;;31.58;18.92;99692.25;1087319;39;20845;-82
2023/06/11 11:04:10;;;;;;;5.22;3.15;;;;;;;31.71;18.56;99685.22;1086451;47;20033;-80
2023/06/11 11:05:13;;;;;;;7.00;3.60;;;;;;;31.78;18.32;99682.09;1086681;47;21123;-83
2023/06/11 11:06:28;;;;;;;5.47;3.60;;;;;;;31.88;18.28;99677.25;1086496;47;20027;-81
2023/06/11 11:07:33;;;;;;;5.70;3.85;;;;;;;31.30;18.68;99688.41;1086461;47;20057;-80
2023/06/11 11:08:37;;;;;;;5.93;3.40;;;;;;;31.56;18.91;99687.00;1087480;39;20944;-81
2023/06/11 11:09:38;;;;;;;4.95;3.25;;;;;;;31.56;18.61;99691.72;1086503;47;20026;-81
2023/06/11 11:10:42;;;;;;;5.68;3.45;;;;;;;31.51;18.88;99689.84;1086530;54;20118;-81
2023/06/11 11:11:43;;;;;;;7.95;4.05;;;;;;;31.49;18.73;99691.25;1086554;54;20056;-82
2023/06/11 11:12:48;;;;;;;6.68;3.40;;;;;;;31.44;18.97;99681.09;1086482;47;20026;-84
2023/06/11 11:13:53;;;;;;;6.35;3.40;;;;;;;31.08;18.91;99673.97;1086471;47;20078;-80
2023/06/11 11:14:54;;;;;;;4.93;3.30;;;;;;;31.20;19.08;99683.81;1086496;54;20136;-80
2023/06/11 11:15:58;;;;;;;5.35;3.20;;;;;;;31.01;19.12;99694.72;1086507;47;20033;-81
2023/06/11 11:17:00;;;;;;;5.20;3.42;;;;;;;31.14;19.06;99680.28;1086651;47;20033;-80
2023/06/11 11:18:05;;;;;;;6.50;3.50;;;;;;;31.04;18.96;99683.91;1086495;47;20038;-84
2023/06/11 11:19:06;;;;;;;5.00;3.78;;;;;;;31.32;18.82;99681.47;1086340;47;20066;-81
2023/06/11 11:20:10;;;;;;;5.00;3.13;;;;;;;31.44;18.74;99678.31;1086294;47;20091;-81
2023/06/11 11:21:17;;;;;;;5.40;3.55;;;;;;;31.44;18.86;99678.31;1086743;47;20038;-80
2023/06/11 11:22:18;;;;;;;6.20;3.40;;;;;;;31.50;18.67;99677.13;1086838;54;20027;-81
2023/06/11 11:23:24;;;;;;;5.70;3.33;;;;;;;31.54;18.39;99674.59;1086666;47;20110;-80
2023/06/11 11:24:27;;;;;;;6.07;3.55;;;;;;;31.18;18.48;99675.81;1089271;39;20709;-81
2023/06/11 11:25:29;;;;;;;6.60;3.47;;;;;;;31.30;18.58;99678.19;1086621;47;20027;-80
2023/06/11 11:26:44;;;;;;;6.47;3.47;;;;;;;30.42;18.72;99686.34;1086755;54;20034;-80
2023/06/11 11:27:47;;;;;;;7.93;4.25;;;;;;;30.57;18.71;99677.16;1087909;39;20985;-80
2023/06/11 11:28:51;;;;;;;6.55;3.47;;;;;;;30.00;19.26;99680.25;1086681;54;20038;-83
2023/06/11 11:29:54;;;;;;;5.13;3.40;;;;;;;29.76;19.75;99685.59;1087097;39;20908;-81
2023/06/11 11:30:58;;;;;;;5.70;3.65;;;;;;;29.82;19.98;99682.50;1086805;54;20034;-80
2023/06/11 11:31:59;;;;;;;5.70;3.20;;;;;;;29.62;20.11;99679.81;1086697;47;20027;-80
2023/06/11 11:33:03;;;;;;;5.07;3.28;;;;;;;29.38;20.21;99675.75;1086692;54;20041;-82
2023/06/11 11:34:04;;;;;;;5.90;3.30;;;;;;;29.45;20.53;99674.66;1086748;54;20027;-82
2023/06/11 11:35:09;;;;;;;5.03;3.45;;;;;;;29.73;20.29;99685.03;1086684;47;20030;-79
2023/06/11 11:36:16;;;;;;;6.35;3.65;;;;;;;29.70;20.46;99677.31;1087036;39;20872;-82
2023/06/11 11:37:17;;;;;;;7.40;3.67;;;;;;;29.82;20.35;99678.94;1086784;54;20030;-81
2023/06/11 11:38:22;;;;;;;7.28;3.60;;;;;;;29.95;20.15;99672.81;1086638;47;20121;-81
2023/06/11 11:39:25;;;;;;;6.15;4.25;;;;;;;29.97;19.97;99680.81;1086745;54;20059;-81
2023/06/11 11:40:29;;;;;;;5.47;3.25;;;;;;;29.93;20.07;99669.56;1086669;47;20047;-81
2023/06/11 11:41:31;;;;;;;6.13;3.75;;;;;;;29.95;20.14;99672.81;1087583;39;20658;-81
2023/06/11 11:42:34;;;;;;;5.05;3.42;;;;;;;30.04;20.21;99665.59;1086567;47;20023;-80
2023/06/11 11:43:36;;;;;;;6.55;3.25;;;;;;;29.83;20.52;99659.34;1086792;54;20026;-79
2023/06/11 11:44:44;;;;;;;5.75;3.42;;;;;;;29.69;20.83;99666.59;1086742;47;20056;-82
2023/06/11 11:45:49;;;;;;;5.40;3.63;;;;;;;29.83;20.68;99680.59;1086694;47;20026;-83
2023/06/11 11:46:55;;;;;;;7.25;3.22;;;;;;;29.80;20.47;99664.63;1086683;47;20057;-81
2023/06/11 11:47:58;;;;;;;6.25;3.38;;;;;;;29.72;20.58;99674.28;1086779;47;20042;-83
2023/06/11 11:49:00;;;;;;;5.10;3.33;;;;;;;29.70;20.52;99671.81;1092826;31;21031;-82
2023/06/11 11:50:05;;;;;;;7.13;3.83;;;;;;;29.46;20.72;99670.81;1086689;54;20039;-81
2023/06/11 11:51:07;;;;;;;5.32;3.58;;;;;;;29.61;20.76;99673.50;1087533;39;20739;-84
2023/06/11 11:52:15;;;;;;;4.90;3.35;;;;;;;29.73;20.20;99674.00;1086767;54;20034;-82
2023/06/11 11:53:19;;;;;;;5.82;3.90;;;;;;;29.82;20.65;99667.91;1087794;39;20844;-82
2023/06/11 11:54:20;;;;;;;5.38;3.65;;;;;;;29.92;21.00;99654.09;1086683;54;20037;-81
2023/06/11 11:55:25;;;;;;;6.38;3.40;;;;;;;30.01;20.52;99665.34;1089114;39;21235;-81
2023/06/11 11:56:36;;;;;;;6.38;3.47;;;;;;;29.82;20.70;99665.16;1087599;39;20311;-81
2023/06/11 11:57:38;;;;;;;4.55;3.40;;;;;;;29.79;20.98;99657.44;1086775;54;20035;-81
2023/06/11 11:58:44;;;;;;;6.10;3.35;;;;;;;29.83;20.62;99666.81;1086758;47;20051;-82
2023/06/11 11:59:45;;;;;;;5.43;3.35;;;;;;;29.83;21.01;99653.84;1086675;47;20043;-82
2023/06/11 12:00:53;;;;;;;5.53;3.88;;;;;;;29.83;20.98;99661.31;1087814;39;20954;-82
2023/06/11 12:01:54;;;;;;;5.65;3.67;;;;;;;29.76;21.04;99660.78;1086812;54;20030;-82
2023/06/11 12:02:58;;;;;;;5.45;4.00;;;;;;;29.62;21.36;99655.88;1086587;47;20038;-82
2023/06/11 12:04:01;;;;;;;5.50;3.53;;;;;;;29.62;21.14;99655.03;1086724;47;20030;-82
2023/06/11 12:05:04;;;;;;;5.70;3.67;;;;;;;29.69;21.26;99656.41;1086891;54;20035;-81
2023/06/11 12:06:10;;;;;;;6.75;3.20;;;;;;;29.78;21.38;99662.16;1086848;47;20035;-82
2023/06/11 12:07:16;;;;;;;6.80;3.38;;;;;;;29.85;21.38;99654.41;1086664;47;20026;-82
2023/06/11 12:08:19;;;;;;;5.75;4.03;;;;;;;29.70;21.91;99652.53;1086834;54;20058;-83
2023/06/11 12:09:20;;;;;;;7.05;3.30;;;;;;;29.64;21.93;99653.69;1086711;54;20055;-82
2023/06/11 12:10:26;;;;;;;5.47;3.45;;;;;;;29.72;21.73;99644.81;1086728;54;20035;-81
2023/06/11 12:11:30;;;;;;;6.15;3.47;;;;;;;29.77;21.33;99657.75;1086832;47;20134;-79
2023/06/11 12:12:31;;;;;;;8.45;4.25;;;;;;;29.62;21.37;99657.78;1086772;54;20030;-81
2023/06/11 12:13:35;;;;;;;5.75;4.00;;;;;;;29.17;21.89;99643.88;1086781;54;20035;-82
2023/06/11 12:14:37;;;;;;;6.15;3.83;;;;;;;29.31;21.75;99652.38;1086546;47;20048;-81
2023/06/11 12:15:43;;;;;;;5.88;3.67;;;;;;;29.58;21.67;99660.28;1086784;47;20034;-82
2023/06/11 12:16:47;;;;;;;5.45;3.35;;;;;;;29.79;21.57;99654.69;1087372;47;21119;-83
2023/06/11 12:17:51;;;;;;;6.05;3.95;;;;;;;29.43;21.94;99650.16;1086688;54;20041;-82
2023/06/11 12:18:52;;;;;;;5.60;3.58;;;;;;;29.63;22.15;99642.91;1086609;47;20026;-81
2023/06/11 12:19:56;;;;;;;6.60;3.90;;;;;;;29.77;21.80;99648.66;1086728;54;20042;-81
2023/06/11 12:20:57;;;;;;;8.05;4.00;;;;;;;29.47;22.07;99643.00;1086659;54;20030;-82
2023/06/11 12:22:00;;;;;;;7.93;3.55;;;;;;;29.58;21.97;99649.28;1086687;54;20063;-83
2023/06/11 12:23:04;;;;;;;5.28;3.75;;;;;;;29.66;22.02;99645.13;1086688;47;20031;-82
2023/06/11 12:24:09;;;;;;;6.32;3.78;;;;;;;29.68;21.95;99634.66;1086638;47;20027;-81
2023/06/11 12:25:10;;;;;;;5.43;3.45;;;;;;;29.64;21.94;99644.56;1086530;47;20029;-82
2023/06/11 12:26:14;;;;;;;5.65;3.63;;;;;;;29.63;21.89;99643.75;1087539;39;21106;-82
2023/06/11 12:27:15;;;;;;;5.55;3.85;;;;;;;29.71;21.81;99645.09;1086732;54;20472;-80
2023/06/11 12:28:20;;;;;;;5.85;3.50;;;;;;;29.73;21.69;99635.47;1086317;47;20047;-80
2023/06/11 12:29:21;;;;;;;7.07;3.97;;;;;;;29.72;21.82;99636.56;1086541;47;20027;-80
2023/06/11 12:30:26;;;;;;;5.20;3.45;;;;;;;29.82;21.73;99629.34;1088833;46;20075;-81
2023/06/11 12:31:27;;;;;;;6.07;3.15;;;;;;;29.84;21.76;99632.66;1086678;47;20027;-80
2023/06/11 12:32:32;;;;;;;5.22;3.80;;;;;;;29.86;21.71;99630.41;1086744;47;20083;-80
2023/06/11 12:33:34;;;;;;;5.60;3.28;;;;;;;29.90;21.61;99636.22;1086968;54;20027;-81
2023/06/11 12:34:38;;;;;;;6.43;3.67;;;;;;;29.64;22.09;99636.31;1086955;54;20031;-80
2023/06/11 12:35:43;;;;;;;6.13;4.03;;;;;;;29.76;22.37;99634.06;1087006;47;20065;-81
2023/06/11 12:36:45;;;;;;;7.72;4.38;;;;;;;29.85;22.30;99623.28;1087038;54;20109;-81
2023/06/11 12:37:48;;;;;;;6.22;3.10;;;;;;;29.83;22.07;99628.25;1086974;54;20041;-82
2023/06/11 12:38:53;;;;;;;8.75;4.22;;;;;;;29.63;22.60;99627.25;1087031;47;20026;-84
2023/06/11 12:39:57;;;;;;;6.82;3.92;;;;;;;29.78;22.38;99631.00;1086931;46;20030;-83
2023/06/11 12:40:58;;;;;;;6.70;3.53;;;;;;;29.86;22.20;99633.16;1087057;54;20053;-79
2023/06/11 12:42:02;;;;;;;5.95;3.70;;;;;;;29.87;22.00;99621.06;1086986;47;20030;-82
2023/06/11 12:43:03;;;;;;;6.47;3.97;;;;;;;29.90;21.94;99626.00;1086965;47;21281;-81
2023/06/11 12:44:08;;;;;;;5.80;3.85;;;;;;;29.82;22.16;99623.84;1086946;47;20031;-81